Aeroporto :
LOGIN :

Iscrizione | Disclaimer

   EN    FR    IT 

 










Sommario :    VFR   VFR Marginale   IFR   IFR Intensivo   IFR Molto Intensivo
Visibilità : 
Base nubi : 
>= 8 km
>= 3000ft
5 / 8 km
1000 / 3000 ft
1500m / 5 km
500 / 1000 ft
800 / 1500m
200 / 500 ft
< 800m
< 200 ft
Simboli :   Temporali  Nebbia  Neve Forte  Precipitazioni Forti  Vento > 20 kt
SIGMETs :   Varie  Temporali  Ghiacco  Turbolenza  Onda orograficha  Ceneri Vulcaniche







- Altitudine del aeroporto : 65 ft
- Codice IATA : PIK
- Carte del aeroporto


EGPK - Glasgow Prestwick

ULTIMO METAR :
  • 202350Z VRB03KT 9999 FEW032 09/08 Q1017

METARs OBSOLETI :
  • 202320Z 27004KT 9999 FEW030 09/08 Q1017
  • 202250Z 27004KT 9999 FEW030 09/08 Q1017
  • 202220Z 28004KT 9999 FEW026 09/07 Q1017
  • 202150Z 29004KT 9999 FEW026 10/07 Q1017

TAF TAF EGPK
Valido dal 21 a 00 ore il 22 a 00 ore UTC


202254Z 2100/2124 29007KT 9999 FEW035
PROB40
TEMPO 2100/2110 BKN012
Nessun NOTAM noto per questo aeroporto.



MetMap, La meteo Aeronautica in un colpo d'occhio ! - Copyright ORBIFLY Dicembre 2007 - Disclaimer

ORBIFLY MET'MAP TEAM :

Programmazione e sviluppo : Alexandra Zaïnal
Concezione e sviluppo : Baudouin d'Aumeries
Co-Programmazione e sviluppo : Marc-Olivier Méhu
Supporto tecnico e logistico : Manuel Goepfert
Aiuto per la traduzione : Arnaldo La Scala

Contatto : metmap@orbifly.com




FONTI E CREDITI :

   NOAA